Toronto, Canada
Current Conditions -  °F | °C
As of 4:00 PM on Saturday 22 Nov 2014 (Local Time) from CYYZ Reporting Station
Haze Haze  
Wind Chill: 33°   Ceiling: 900
Heat Index: 39°   Visibility: 6mi
Dew Point: 36°   Wind: 9mph
Humidity: 87%   Direction: 230°SW
Pressure: 29.94"   Gusts: NA
Location:  43.65°N, 79.39°W
Report Text: CYYZ 222100Z 23008KT 6SM BR OVC009 04/02 A2994 RMK SC8 SLP145
Loading
Personal Weather Stations






























Interactive Weather Map New forecast layout! Learn more

10-Day Weather Forecast

Advertisements
Track Severe Weather on mobile